createdAt,value
2018-08-06T00:00:29.563Z,23.90
2018-08-06T00:02:57.731Z,23.90
2018-08-06T00:05:25.940Z,23.90
2018-08-06T00:07:54.148Z,23.90
2018-08-06T00:10:23.962Z,23.90
2018-08-06T00:12:52.290Z,23.80
2018-08-06T00:15:20.588Z,23.70
2018-08-06T00:17:48.838Z,23.60
2018-08-06T00:20:17.093Z,23.60
2018-08-06T00:22:45.369Z,23.50
2018-08-06T00:25:14.830Z,23.40
2018-08-06T00:27:43.598Z,23.30
2018-08-06T00:30:17.013Z,23.40
2018-08-06T00:32:46.383Z,23.40
2018-08-06T00:35:15.050Z,23.40
2018-08-06T00:37:43.425Z,23.40
2018-08-06T00:40:17.002Z,23.40
2018-08-06T00:42:45.798Z,23.40
2018-08-06T00:45:16.307Z,23.40
2018-08-06T00:47:45.043Z,23.40
2018-08-06T00:50:13.386Z,23.40
2018-08-06T00:55:11.803Z,23.40
2018-08-06T00:57:40.424Z,23.30
2018-08-06T01:02:38.062Z,23.40
2018-08-06T01:05:07.618Z,23.40
2018-08-06T01:07:35.888Z,23.40
2018-08-06T01:10:05.675Z,23.40
2018-08-06T01:12:33.910Z,23.50
2018-08-06T01:15:02.150Z,23.60
2018-08-06T01:17:30.461Z,23.50
2018-08-06T01:19:58.738Z,23.50
2018-08-06T01:22:27.051Z,23.40
2018-08-06T01:24:55.425Z,23.30
2018-08-06T01:27:23.617Z,23.40
2018-08-06T01:29:51.830Z,23.40
2018-08-06T01:32:20.029Z,23.50
2018-08-06T01:34:48.266Z,23.40
2018-08-06T01:37:16.465Z,23.50
2018-08-06T01:39:44.654Z,23.50
2018-08-06T01:42:12.876Z,23.30
2018-08-06T01:44:41.113Z,23.10
2018-08-06T01:47:09.326Z,23.00
2018-08-06T01:49:37.527Z,22.80
2018-08-06T01:52:05.814Z,22.60
2018-08-06T01:54:34.399Z,22.60
2018-08-06T01:57:02.655Z,22.60
2018-08-06T01:59:30.866Z,22.70
2018-08-06T02:01:59.061Z,22.70
2018-08-06T02:04:27.796Z,22.70
2018-08-06T02:06:55.992Z,22.70
2018-08-06T02:09:24.422Z,22.70
2018-08-06T02:11:52.622Z,22.60
2018-08-06T02:14:20.831Z,22.60
2018-08-06T02:16:49.171Z,22.40
2018-08-06T02:19:17.422Z,22.30
2018-08-06T02:21:45.643Z,22.30
2018-08-06T02:24:13.891Z,22.20
2018-08-06T02:26:42.109Z,22.20
2018-08-06T02:29:10.327Z,22.20
2018-08-06T02:31:38.582Z,22.10
2018-08-06T02:34:06.771Z,22.20
2018-08-06T02:36:34.999Z,22.30
2018-08-06T02:39:03.356Z,22.30
2018-08-06T02:41:31.598Z,22.40
2018-08-06T02:43:59.869Z,22.50
2018-08-06T02:46:29.024Z,22.50
2018-08-06T02:48:57.225Z,22.60
2018-08-06T02:51:25.482Z,22.70
2018-08-06T02:53:53.763Z,22.60
2018-08-06T02:56:22.025Z,22.60
2018-08-06T02:58:50.696Z,22.60
2018-08-06T03:01:18.933Z,22.50
2018-08-06T03:03:47.229Z,22.20
2018-08-06T03:06:15.470Z,22.10
2018-08-06T03:08:43.698Z,21.90
2018-08-06T03:11:11.999Z,21.70
2018-08-06T03:13:40.230Z,21.50
2018-08-06T03:16:14.938Z,21.70
2018-08-06T03:18:43.173Z,21.60
2018-08-06T03:21:11.394Z,21.50
2018-08-06T03:23:39.599Z,21.40
2018-08-06T03:26:07.817Z,21.30
2018-08-06T03:28:36.211Z,21.30
2018-08-06T03:31:04.437Z,21.20
2018-08-06T03:33:32.661Z,21.20
2018-08-06T03:36:00.853Z,21.10
2018-08-06T03:38:29.173Z,21.10
2018-08-06T03:40:57.415Z,21.10
2018-08-06T03:43:25.670Z,21.00
2018-08-06T03:45:53.894Z,21.10
2018-08-06T03:48:22.174Z,20.90
2018-08-06T03:50:50.406Z,20.90
2018-08-06T03:53:18.602Z,20.90
2018-08-06T03:55:46.883Z,21.10
2018-08-06T03:58:15.141Z,21.10
2018-08-06T04:00:43.335Z,21.00
2018-08-06T04:03:11.524Z,21.10
2018-08-06T04:05:39.827Z,21.10
2018-08-06T04:08:08.124Z,21.00
2018-08-06T04:10:36.365Z,21.10
2018-08-06T04:13:04.600Z,21.10
2018-08-06T04:15:32.898Z,20.90
2018-08-06T04:18:01.139Z,20.80
2018-08-06T04:20:29.521Z,20.80
2018-08-06T04:22:57.777Z,20.80
2018-08-06T04:25:25.988Z,20.80
2018-08-06T04:27:54.170Z,20.80
2018-08-06T04:30:22.597Z,20.80
2018-08-06T04:32:50.799Z,20.90
2018-08-06T04:35:19.113Z,20.90
2018-08-06T04:37:47.376Z,21.00
2018-08-06T04:40:15.667Z,21.10
2018-08-06T04:42:44.032Z,21.10
2018-08-06T04:45:12.397Z,21.30
2018-08-06T04:47:41.630Z,21.30
2018-08-06T04:50:12.748Z,21.30
2018-08-06T04:52:40.905Z,21.40
2018-08-06T04:55:11.110Z,21.40
2018-08-06T04:57:39.509Z,21.20
2018-08-06T05:00:10.317Z,21.30
2018-08-06T05:02:38.518Z,21.50
2018-08-06T05:05:07.718Z,21.60
2018-08-06T05:07:36.266Z,21.60
2018-08-06T05:10:04.839Z,21.40
2018-08-06T05:12:33.163Z,21.40
2018-08-06T05:15:01.376Z,21.40
2018-08-06T05:17:29.618Z,21.40
2018-08-06T05:19:57.946Z,21.40
2018-08-06T05:22:26.318Z,21.50
2018-08-06T05:24:54.561Z,21.40
2018-08-06T05:27:22.854Z,21.50
2018-08-06T05:29:51.409Z,21.40
2018-08-06T05:32:19.646Z,21.30
2018-08-06T05:34:47.910Z,21.30
2018-08-06T05:37:16.222Z,21.30
2018-08-06T05:39:44.481Z,21.50
2018-08-06T05:42:14.118Z,21.50
2018-08-06T05:44:42.365Z,21.50
2018-08-06T05:47:10.704Z,21.70
2018-08-06T05:49:38.998Z,21.70
2018-08-06T05:52:07.945Z,22.00
2018-08-06T05:54:36.415Z,22.20
2018-08-06T05:57:04.745Z,22.30
2018-08-06T05:59:33.220Z,22.50
2018-08-06T06:02:01.613Z,22.60
2018-08-06T06:04:29.892Z,23.10
2018-08-06T06:06:58.155Z,23.30
2018-08-06T06:09:26.606Z,23.10
2018-08-06T06:11:54.976Z,23.30
2018-08-06T06:14:23.261Z,23.10
2018-08-06T06:16:51.535Z,23.10
2018-08-06T06:19:19.843Z,23.20
2018-08-06T06:21:48.099Z,23.20
2018-08-06T06:24:16.341Z,23.30
2018-08-06T06:26:44.618Z,23.50
2018-08-06T06:29:12.907Z,23.90
2018-08-06T06:34:09.244Z,23.70
2018-08-06T06:36:37.551Z,23.90
2018-08-06T06:39:09.036Z,24.20
2018-08-06T06:41:37.664Z,24.70
2018-08-06T06:44:06.163Z,25.00
2018-08-06T06:46:34.534Z,25.10
2018-08-06T06:49:03.555Z,25.60
2018-08-06T06:51:31.849Z,26.00
2018-08-06T06:54:00.140Z,26.20
2018-08-06T06:56:28.362Z,26.60
2018-08-06T06:58:56.659Z,26.80
2018-08-06T07:01:25.006Z,26.80
2018-08-06T07:03:53.362Z,27.30
2018-08-06T07:06:21.762Z,27.30
2018-08-06T07:08:49.989Z,26.70
2018-08-06T07:11:18.233Z,26.90
2018-08-06T07:13:46.552Z,27.30
2018-08-06T07:16:14.813Z,27.30
2018-08-06T07:18:43.123Z,27.30
2018-08-06T07:21:11.391Z,26.70
2018-08-06T07:23:39.706Z,26.90
2018-08-06T07:26:07.936Z,26.50
2018-08-06T07:28:36.228Z,26.90
2018-08-06T07:31:04.474Z,27.20
2018-08-06T07:33:32.801Z,27.00
2018-08-06T07:36:01.258Z,26.70
2018-08-06T07:38:29.499Z,27.10
2018-08-06T07:40:57.812Z,27.70
2018-08-06T07:43:26.099Z,27.80
2018-08-06T07:45:54.343Z,27.80
2018-08-06T07:48:22.653Z,27.50
2018-08-06T07:50:50.906Z,27.80
2018-08-06T07:53:19.222Z,28.10
2018-08-06T07:58:15.490Z,27.70
2018-08-06T08:00:43.719Z,27.80
2018-08-06T08:03:11.978Z,28.20
2018-08-06T08:05:40.527Z,28.50
2018-08-06T08:10:36.769Z,28.60
2018-08-06T08:13:05.153Z,29.30
2018-08-06T08:15:33.439Z,29.40
2018-08-06T08:18:01.667Z,29.70
2018-08-06T08:20:30.009Z,29.40
2018-08-06T08:22:58.408Z,29.70
2018-08-06T08:25:26.629Z,30.00
2018-08-06T08:27:55.702Z,30.00
2018-08-06T08:30:23.946Z,30.10
2018-08-06T08:32:52.310Z,30.00
2018-08-06T08:35:20.512Z,30.00
2018-08-06T08:37:48.732Z,30.20
2018-08-06T08:40:18.367Z,30.50
2018-08-06T08:42:46.581Z,30.20
2018-08-06T08:45:16.134Z,29.70
2018-08-06T08:47:44.895Z,30.20
2018-08-06T08:50:14.582Z,30.60
2018-08-06T08:52:43.154Z,30.90
2018-08-06T08:55:13.153Z,31.20
2018-08-06T08:57:41.846Z,30.20
2018-08-06T09:00:13.162Z,29.60
2018-08-06T09:02:42.046Z,29.60
2018-08-06T09:05:10.296Z,29.30
2018-08-06T09:07:38.758Z,29.80
2018-08-06T09:10:09.069Z,30.40
2018-08-06T09:12:37.670Z,30.00
2018-08-06T09:15:13.198Z,30.10
2018-08-06T09:17:41.650Z,30.30
2018-08-06T09:20:09.933Z,30.80
2018-08-06T09:22:38.703Z,31.20
2018-08-06T09:25:07.877Z,31.40
2018-08-06T09:27:36.207Z,31.20
2018-08-06T09:30:11.389Z,31.10
2018-08-06T09:32:39.804Z,31.00
2018-08-06T09:35:08.047Z,30.70
2018-08-06T09:37:36.268Z,30.90
2018-08-06T09:40:06.746Z,30.80
2018-08-06T09:42:34.986Z,29.90
2018-08-06T09:45:03.204Z,29.90
2018-08-06T09:47:31.417Z,30.20
2018-08-06T09:49:59.666Z,30.60
2018-08-06T09:52:27.871Z,31.20
2018-08-06T09:54:56.092Z,31.40
2018-08-06T09:57:24.312Z,31.10
2018-08-06T09:59:52.851Z,31.10
2018-08-06T10:02:21.093Z,31.40
2018-08-06T10:04:49.331Z,31.60
2018-08-06T10:07:17.611Z,31.30
2018-08-06T10:09:45.855Z,31.30
2018-08-06T10:12:14.091Z,31.20
2018-08-06T10:14:42.325Z,31.30
2018-08-06T10:17:10.590Z,31.40
2018-08-06T10:19:38.913Z,31.50
2018-08-06T10:22:07.094Z,32.00
2018-08-06T10:24:35.388Z,31.90
2018-08-06T10:27:03.586Z,31.60
2018-08-06T10:29:31.882Z,31.80
2018-08-06T10:32:00.099Z,31.60
2018-08-06T10:34:28.309Z,31.90
2018-08-06T10:36:56.505Z,31.90
2018-08-06T10:39:24.716Z,31.80
2018-08-06T10:41:52.958Z,32.10
2018-08-06T10:44:21.155Z,32.40
2018-08-06T10:46:49.390Z,32.00
2018-08-06T10:49:17.566Z,32.00
2018-08-06T10:51:45.830Z,32.10
2018-08-06T10:54:14.116Z,32.30
2018-08-06T10:56:42.382Z,31.90
2018-08-06T10:59:10.610Z,31.50
2018-08-06T11:01:38.791Z,31.20
2018-08-06T11:04:07.052Z,30.80
2018-08-06T11:06:35.309Z,30.70
2018-08-06T11:09:03.529Z,30.80
2018-08-06T11:11:31.745Z,30.70
2018-08-06T11:13:59.970Z,30.40
2018-08-06T11:16:28.218Z,30.00
2018-08-06T11:18:56.429Z,29.80
2018-08-06T11:21:24.724Z,30.00
2018-08-06T11:23:52.971Z,30.20
2018-08-06T11:26:21.177Z,30.40
2018-08-06T11:28:49.504Z,30.50
2018-08-06T11:31:17.759Z,30.60
2018-08-06T11:33:46.012Z,30.40
2018-08-06T11:36:14.222Z,30.40
2018-08-06T11:38:42.460Z,30.50
2018-08-06T11:41:10.699Z,30.60
2018-08-06T11:43:38.898Z,30.80
2018-08-06T11:46:07.141Z,30.70
2018-08-06T11:48:35.414Z,30.80
2018-08-06T11:51:03.630Z,30.60
2018-08-06T11:53:31.932Z,30.50
2018-08-06T11:56:00.201Z,30.50
2018-08-06T11:58:28.476Z,30.40
2018-08-06T12:00:56.855Z,30.40
2018-08-06T12:03:25.079Z,30.50
2018-08-06T12:05:53.287Z,30.60
2018-08-06T12:08:21.492Z,30.70
2018-08-06T12:10:49.681Z,31.00
2018-08-06T12:13:17.937Z,31.00
2018-08-06T12:15:46.196Z,31.00
2018-08-06T12:18:14.443Z,30.90
2018-08-06T12:20:42.693Z,30.60
2018-08-06T12:23:10.958Z,30.50
2018-08-06T12:25:39.143Z,30.50
2018-08-06T12:28:07.419Z,30.50
2018-08-06T12:30:36.680Z,30.20
2018-08-06T12:33:04.885Z,30.20
2018-08-06T12:35:33.246Z,30.40
2018-08-06T12:38:01.620Z,30.40
2018-08-06T12:40:29.962Z,30.20
2018-08-06T12:42:58.190Z,30.50
2018-08-06T12:45:26.653Z,30.60
2018-08-06T12:47:54.854Z,30.80
2018-08-06T12:50:23.063Z,31.00
2018-08-06T12:52:51.413Z,31.20
2018-08-06T12:55:19.654Z,31.20
2018-08-06T12:57:47.865Z,31.40
2018-08-06T13:00:24.556Z,31.40
2018-08-06T13:02:53.323Z,31.10
2018-08-06T13:05:22.111Z,31.10
2018-08-06T13:07:50.586Z,31.20
2018-08-06T13:10:18.790Z,31.30
2018-08-06T13:12:47.128Z,31.40
2018-08-06T13:15:16.060Z,31.30
2018-08-06T13:17:44.315Z,31.40
2018-08-06T13:20:12.674Z,31.30
2018-08-06T13:22:40.854Z,31.20
2018-08-06T13:25:10.866Z,31.20
2018-08-06T13:27:39.182Z,31.30
2018-08-06T13:30:11.084Z,31.50
2018-08-06T13:32:39.325Z,31.40
2018-08-06T13:35:07.569Z,31.50
2018-08-06T13:37:35.846Z,31.40
2018-08-06T13:40:04.555Z,31.40
2018-08-06T13:42:32.788Z,31.60
2018-08-06T13:45:01.063Z,31.40
2018-08-06T13:47:29.240Z,31.30
2018-08-06T13:49:57.453Z,31.50
2018-08-06T13:54:53.652Z,31.60
2018-08-06T13:57:21.835Z,31.50
2018-08-06T13:59:50.228Z,31.30
2018-08-06T14:02:18.529Z,31.30
2018-08-06T14:04:46.781Z,31.30
2018-08-06T14:07:15.154Z,31.20
2018-08-06T14:09:43.375Z,31.20
2018-08-06T14:12:11.790Z,31.30
2018-08-06T14:14:40.032Z,31.20
2018-08-06T14:17:08.269Z,31.30
2018-08-06T14:19:36.479Z,31.30
2018-08-06T14:22:04.812Z,31.40
2018-08-06T14:24:33.030Z,31.40
2018-08-06T14:27:01.594Z,31.10
2018-08-06T14:29:29.845Z,31.10
2018-08-06T14:31:58.254Z,31.00
2018-08-06T14:34:26.728Z,31.10
2018-08-06T14:36:55.205Z,31.20
2018-08-06T14:39:23.652Z,31.30
2018-08-06T14:41:51.966Z,31.40
2018-08-06T14:44:20.224Z,31.50
2018-08-06T14:46:48.474Z,31.60
2018-08-06T14:49:16.794Z,31.60
2018-08-06T14:51:45.184Z,31.60
2018-08-06T14:54:13.413Z,31.50
2018-08-06T14:56:41.698Z,31.40
2018-08-06T14:59:09.920Z,31.40
2018-08-06T15:01:38.120Z,31.30
2018-08-06T15:04:06.372Z,31.40
2018-08-06T15:06:34.622Z,31.30
2018-08-06T15:09:02.972Z,31.20
2018-08-06T15:11:31.267Z,31.20
2018-08-06T15:13:59.444Z,31.40
2018-08-06T15:16:27.783Z,31.40
2018-08-06T15:18:56.063Z,31.30
2018-08-06T15:21:24.339Z,31.40
2018-08-06T15:23:52.548Z,31.30
2018-08-06T15:26:20.754Z,31.30
2018-08-06T15:28:49.115Z,31.40
2018-08-06T15:31:17.311Z,31.40
2018-08-06T15:33:45.734Z,31.40
2018-08-06T15:36:14.067Z,31.60
2018-08-06T15:38:42.351Z,31.40
2018-08-06T15:41:11.026Z,31.40
2018-08-06T15:43:39.238Z,31.40
2018-08-06T15:46:07.473Z,31.50
2018-08-06T15:48:35.730Z,31.50
2018-08-06T15:51:03.975Z,31.40
2018-08-06T15:53:32.254Z,31.30
2018-08-06T15:56:00.498Z,31.20
2018-08-06T15:58:28.745Z,31.20
2018-08-06T16:00:56.971Z,31.20
2018-08-06T16:05:53.201Z,31.10
2018-08-06T16:08:21.440Z,31.00
2018-08-06T16:10:49.738Z,30.90
2018-08-06T16:13:17.995Z,30.90
2018-08-06T16:15:46.238Z,30.90
2018-08-06T16:18:14.549Z,30.90
2018-08-06T16:20:42.762Z,30.90
2018-08-06T16:23:10.979Z,30.90
2018-08-06T16:25:39.178Z,31.00
2018-08-06T16:28:07.377Z,31.00
2018-08-06T16:30:35.598Z,30.90
2018-08-06T16:33:03.868Z,30.90
2018-08-06T16:35:32.259Z,30.90
2018-08-06T16:38:00.436Z,30.90
2018-08-06T16:40:29.251Z,30.90
2018-08-06T16:42:57.461Z,30.90
2018-08-06T16:45:25.667Z,30.80
2018-08-06T16:47:53.946Z,30.80
2018-08-06T16:50:22.219Z,30.70
2018-08-06T16:52:50.601Z,30.70
2018-08-06T16:55:18.694Z,30.80
2018-08-06T16:57:46.928Z,30.80
2018-08-06T17:00:17.367Z,30.80
2018-08-06T17:02:45.782Z,30.70
2018-08-06T17:05:14.852Z,30.60
2018-08-06T17:07:44.359Z,30.60
2018-08-06T17:10:14.777Z,30.60
2018-08-06T17:12:44.181Z,30.60
2018-08-06T17:15:14.037Z,30.60
2018-08-06T17:17:42.680Z,30.50
2018-08-06T17:20:14.680Z,30.40
2018-08-06T17:22:44.075Z,30.30
2018-08-06T17:25:12.923Z,30.30
2018-08-06T17:27:41.888Z,30.20
2018-08-06T17:30:11.585Z,30.20
2018-08-06T17:32:40.166Z,30.10
2018-08-06T17:35:10.635Z,30.10
2018-08-06T17:37:38.851Z,30.10
2018-08-06T17:40:10.402Z,30.00
2018-08-06T17:42:39.225Z,30.10
2018-08-06T17:45:10.431Z,30.00
2018-08-06T17:47:38.980Z,30.00
2018-08-06T17:50:09.087Z,30.10
2018-08-06T17:52:38.398Z,30.10
2018-08-06T17:55:06.933Z,30.10
2018-08-06T17:57:35.182Z,30.00
2018-08-06T18:00:03.533Z,29.90
2018-08-06T18:02:31.749Z,29.80
2018-08-06T18:05:00.028Z,29.80
2018-08-06T18:07:28.267Z,29.70
2018-08-06T18:09:56.471Z,29.70
2018-08-06T18:12:24.707Z,29.70
2018-08-06T18:14:52.940Z,29.60
2018-08-06T18:17:21.216Z,29.60
2018-08-06T18:19:49.459Z,29.60
2018-08-06T18:22:17.740Z,29.60
2018-08-06T18:24:45.930Z,29.60
2018-08-06T18:27:14.243Z,29.60
2018-08-06T18:29:42.433Z,29.60
2018-08-06T18:32:10.694Z,29.60
2018-08-06T18:34:39.225Z,29.60
2018-08-06T18:37:07.489Z,29.60
2018-08-06T18:39:35.778Z,29.40
2018-08-06T18:42:04.084Z,29.40
2018-08-06T18:44:32.322Z,29.40
2018-08-06T18:47:00.609Z,29.30
2018-08-06T18:49:28.812Z,29.20
2018-08-06T18:51:57.072Z,29.10
2018-08-06T18:54:25.228Z,29.00
2018-08-06T18:56:53.480Z,29.00
2018-08-06T18:59:28.030Z,29.00
2018-08-06T19:01:56.273Z,29.00
2018-08-06T19:04:24.585Z,29.00
2018-08-06T19:06:52.789Z,28.90
2018-08-06T19:09:21.090Z,28.90
2018-08-06T19:11:49.302Z,28.80
2018-08-06T19:14:24.398Z,28.80
2018-08-06T19:16:53.091Z,28.80
2018-08-06T19:19:24.948Z,28.80
2018-08-06T19:21:54.436Z,28.80
2018-08-06T19:24:27.991Z,28.80
2018-08-06T19:26:56.272Z,28.80
2018-08-06T19:29:25.056Z,28.80
2018-08-06T19:31:54.547Z,28.80
2018-08-06T19:34:22.842Z,28.80
2018-08-06T19:36:56.439Z,28.70
2018-08-06T19:39:24.941Z,28.60
2018-08-06T19:41:53.533Z,28.60
2018-08-06T19:44:23.514Z,28.60
2018-08-06T19:46:51.877Z,28.50
2018-08-06T19:49:25.677Z,28.40
2018-08-06T19:51:54.274Z,28.40
2018-08-06T19:54:22.578Z,28.40
2018-08-06T19:56:50.803Z,28.30
2018-08-06T19:59:19.221Z,28.40
2018-08-06T20:01:47.438Z,28.30
2018-08-06T20:04:16.494Z,28.30
2018-08-06T20:06:44.780Z,28.30
2018-08-06T20:09:14.664Z,28.30
2018-08-06T20:11:42.961Z,28.30
2018-08-06T20:14:11.504Z,28.20
2018-08-06T20:16:39.906Z,28.30
2018-08-06T20:19:09.237Z,28.20
2018-08-06T20:21:37.567Z,28.30
2018-08-06T20:24:06.649Z,28.10
2018-08-06T20:26:34.941Z,28.00
2018-08-06T20:29:03.251Z,28.10
2018-08-06T20:31:31.611Z,28.10
2018-08-06T20:34:00.046Z,28.10
2018-08-06T20:36:28.264Z,28.00
2018-08-06T20:38:56.467Z,28.00
2018-08-06T20:41:24.715Z,28.00
2018-08-06T20:43:52.990Z,27.90
2018-08-06T20:46:21.263Z,27.80
2018-08-06T20:48:49.558Z,27.80
2018-08-06T20:51:17.802Z,27.70
2018-08-06T20:53:46.351Z,27.70
2018-08-06T20:56:14.610Z,27.60
2018-08-06T20:58:42.848Z,27.60
2018-08-06T21:01:11.079Z,27.50
2018-08-06T21:06:07.372Z,27.60
2018-08-06T21:08:35.650Z,27.60
2018-08-06T21:11:04.302Z,27.50
2018-08-06T21:13:32.519Z,27.50
2018-08-06T21:16:00.839Z,27.50
2018-08-06T21:18:29.074Z,27.50
2018-08-06T21:20:57.290Z,27.40
2018-08-06T21:23:25.537Z,27.40
2018-08-06T21:25:53.780Z,27.40
2018-08-06T21:28:22.016Z,27.30
2018-08-06T21:30:50.232Z,27.30
2018-08-06T21:33:18.823Z,27.40
2018-08-06T21:35:47.053Z,27.40
2018-08-06T21:38:15.377Z,27.40
2018-08-06T21:40:43.641Z,27.50
2018-08-06T21:43:12.912Z,27.50
2018-08-06T21:45:41.218Z,27.50
2018-08-06T21:48:09.386Z,27.50
2018-08-06T21:50:37.612Z,27.50
2018-08-06T21:53:05.798Z,27.50
2018-08-06T21:55:33.997Z,27.50
2018-08-06T21:58:02.217Z,27.50
2018-08-06T22:00:33.902Z,27.50
2018-08-06T22:03:03.534Z,27.50
2018-08-06T22:05:31.975Z,27.40
2018-08-06T22:08:00.382Z,27.40
2018-08-06T22:10:31.611Z,27.40
2018-08-06T22:12:59.845Z,27.40
2018-08-06T22:15:28.086Z,27.40
2018-08-06T22:17:56.389Z,27.40
2018-08-06T22:20:24.606Z,27.30
2018-08-06T22:22:53.592Z,27.20
2018-08-06T22:25:22.333Z,27.20
2018-08-06T22:27:50.558Z,27.20
2018-08-06T22:30:18.792Z,27.20
2018-08-06T22:32:47.017Z,27.10
2018-08-06T22:35:15.220Z,27.10
2018-08-06T22:37:43.464Z,27.10
2018-08-06T22:40:12.681Z,27.10
2018-08-06T22:42:41.406Z,26.90
2018-08-06T22:45:11.115Z,26.70
2018-08-06T22:47:39.904Z,26.70
2018-08-06T22:50:09.817Z,26.60
2018-08-06T22:52:38.373Z,26.60
2018-08-06T22:55:07.303Z,26.50
2018-08-06T22:57:35.545Z,26.50
2018-08-06T23:00:04.723Z,26.50
2018-08-06T23:02:32.978Z,26.50
2018-08-06T23:05:01.373Z,26.50
2018-08-06T23:07:29.688Z,26.50
2018-08-06T23:09:57.931Z,26.60
2018-08-06T23:12:26.110Z,26.60
2018-08-06T23:14:54.351Z,26.60
2018-08-06T23:17:22.578Z,26.60
2018-08-06T23:19:50.853Z,26.60
2018-08-06T23:22:19.115Z,26.50
2018-08-06T23:27:15.833Z,26.40
2018-08-06T23:32:11.997Z,26.20
2018-08-06T23:34:40.302Z,26.10
2018-08-06T23:37:08.985Z,26.00
2018-08-06T23:39:37.193Z,26.00
2018-08-06T23:42:05.448Z,25.90
2018-08-06T23:44:34.094Z,25.90
2018-08-06T23:47:02.302Z,25.80
2018-08-06T23:49:30.563Z,25.70
2018-08-06T23:52:05.373Z,25.70
2018-08-06T23:54:33.681Z,25.70
2018-08-06T23:57:01.854Z,25.80
2018-08-06T23:59:30.054Z,25.80
